createdAt,value
2022-08-04T00:00:10.997Z,29.20
2022-08-04T00:03:02.650Z,29.20
2022-08-04T00:05:49.933Z,29.20
2022-08-04T00:08:25.454Z,29.20
2022-08-04T00:10:56.460Z,29.20
2022-08-04T00:13:25.489Z,29.20
2022-08-04T00:15:54.525Z,29.10
2022-08-04T00:18:27.568Z,29.20
2022-08-04T00:21:01.043Z,29.10
2022-08-04T00:24:11.490Z,29.10
2022-08-04T00:26:18.733Z,29.20
2022-08-04T00:28:48.376Z,29.20
2022-08-04T00:31:17.117Z,29.10
2022-08-04T00:33:46.901Z,29.10
2022-08-04T00:36:18.051Z,29.10
2022-08-04T00:38:45.947Z,29.10
2022-08-04T00:41:23.345Z,29.10
2022-08-04T00:44:07.991Z,29.10
2022-08-04T00:46:51.238Z,29.10
2022-08-04T00:49:46.021Z,29.10
2022-08-04T00:52:32.751Z,29.10
2022-08-04T00:55:24.082Z,29.10
2022-08-04T00:58:11.281Z,29.10
2022-08-04T01:00:46.835Z,29.10
2022-08-04T01:03:21.624Z,29.10
2022-08-04T01:05:58.853Z,29.10
2022-08-04T01:08:50.340Z,29.10
2022-08-04T01:11:28.409Z,29.10
2022-08-04T01:14:06.294Z,29.10
2022-08-04T01:16:40.982Z,29.10
2022-08-04T01:19:27.637Z,29.10
2022-08-04T01:22:24.173Z,29.10
2022-08-04T01:25:07.448Z,29.10
2022-08-04T01:27:50.632Z,29.10
2022-08-04T01:30:19.917Z,29.10
2022-08-04T01:32:53.058Z,29.10
2022-08-04T01:35:47.736Z,29.10
2022-08-04T01:38:21.334Z,29.10
2022-08-04T01:40:53.946Z,29.10
2022-08-04T01:43:22.272Z,29.10
2022-08-04T01:45:58.251Z,29.10
2022-08-04T01:48:27.858Z,29.10
2022-08-04T01:50:58.957Z,29.10
2022-08-04T01:53:31.850Z,29.10
2022-08-04T01:56:01.016Z,29.10
2022-08-04T01:58:31.040Z,29.10
2022-08-04T02:01:05.164Z,29.10
2022-08-04T02:04:20.824Z,29.10
2022-08-04T02:06:32.696Z,29.10
2022-08-04T02:09:09.944Z,29.10
2022-08-04T02:11:38.111Z,29.10
2022-08-04T02:14:37.170Z,29.10
2022-08-04T02:17:13.908Z,29.10
2022-08-04T02:20:04.006Z,29.10
2022-08-04T02:22:34.686Z,29.10
2022-08-04T02:25:07.661Z,29.10
2022-08-04T02:28:03.444Z,29.10
2022-08-04T02:30:38.922Z,29.10
2022-08-04T02:33:10.266Z,29.10
2022-08-04T02:35:41.972Z,29.10
2022-08-04T02:38:25.538Z,29.10
2022-08-04T02:40:56.585Z,29.10
2022-08-04T02:43:51.063Z,29.10
2022-08-04T02:46:19.635Z,29.10
2022-08-04T02:48:51.316Z,29.10
2022-08-04T02:51:25.343Z,29.10
2022-08-04T02:53:56.038Z,29.10
2022-08-04T02:56:26.061Z,29.10
2022-08-04T02:59:00.736Z,29.10
2022-08-04T03:01:28.552Z,29.10
2022-08-04T03:04:24.354Z,29.10
2022-08-04T03:07:37.143Z,29.10
2022-08-04T03:10:28.631Z,29.10
2022-08-04T03:13:33.917Z,29.10
2022-08-04T03:16:21.984Z,29.10
2022-08-04T03:19:34.577Z,29.10
2022-08-04T03:22:27.468Z,29.10
2022-08-04T03:25:54.461Z,29.10
2022-08-04T03:29:00.418Z,29.10
2022-08-04T03:32:13.630Z,29.10
2022-08-04T03:34:55.110Z,29.10
2022-08-04T03:37:40.902Z,29.10
2022-08-04T03:40:40.130Z,29.00
2022-08-04T03:43:56.836Z,29.00
2022-08-04T03:46:49.366Z,29.00
2022-08-04T03:49:51.879Z,29.00
2022-08-04T03:53:09.287Z,29.00
2022-08-04T03:56:08.073Z,29.00
2022-08-04T03:58:53.538Z,29.00
2022-08-04T04:02:02.773Z,29.10
2022-08-04T04:04:47.921Z,29.00
2022-08-04T04:07:59.784Z,29.00
2022-08-04T04:11:08.108Z,29.00
2022-08-04T04:13:54.899Z,29.00
2022-08-04T04:16:38.339Z,29.00
2022-08-04T04:19:23.813Z,29.10
2022-08-04T04:22:22.098Z,29.00
2022-08-04T04:25:00.302Z,29.00
2022-08-04T04:27:40.919Z,29.00
2022-08-04T04:30:17.120Z,29.00
2022-08-04T04:33:08.917Z,29.00
2022-08-04T04:35:46.494Z,29.00
2022-08-04T04:38:52.749Z,29.00
2022-08-04T04:41:40.091Z,29.00
2022-08-04T04:44:30.796Z,29.10
2022-08-04T04:47:08.165Z,29.00
2022-08-04T04:49:41.852Z,29.00
2022-08-04T04:52:14.833Z,29.00
2022-08-04T04:54:52.176Z,29.00
2022-08-04T04:57:53.101Z,29.00
2022-08-04T05:00:13.266Z,29.00
2022-08-04T05:03:03.070Z,29.00
2022-08-04T05:05:41.184Z,29.00
2022-08-04T05:08:44.436Z,29.00
2022-08-04T05:11:34.351Z,29.00
2022-08-04T05:14:36.435Z,29.00
2022-08-04T05:17:02.554Z,29.00
2022-08-04T05:19:43.777Z,29.00
2022-08-04T05:22:19.803Z,29.00
2022-08-04T05:24:50.293Z,29.00
2022-08-04T05:27:21.871Z,29.00
2022-08-04T05:29:55.501Z,29.00
2022-08-04T05:32:29.010Z,28.90
2022-08-04T05:35:03.941Z,28.90
2022-08-04T05:37:34.217Z,28.80
2022-08-04T05:40:04.910Z,28.80
2022-08-04T05:42:34.446Z,28.80
2022-08-04T05:45:03.788Z,28.70
2022-08-04T05:47:33.618Z,28.80
2022-08-04T05:50:03.581Z,28.70
2022-08-04T05:52:33.002Z,28.70
2022-08-04T05:55:02.470Z,28.70
2022-08-04T05:57:31.207Z,28.70
2022-08-04T06:00:00.902Z,28.60
2022-08-04T06:02:31.134Z,28.60
2022-08-04T06:05:00.216Z,28.60
2022-08-04T06:07:29.623Z,28.60
2022-08-04T06:09:57.378Z,28.60
2022-08-04T06:12:31.082Z,28.60
2022-08-04T06:15:00.950Z,28.60
2022-08-04T06:18:32.660Z,28.60
2022-08-04T06:20:23.373Z,28.60
2022-08-04T06:22:56.428Z,28.60
2022-08-04T06:25:27.569Z,28.60
2022-08-04T06:27:56.953Z,28.60
2022-08-04T06:30:27.164Z,28.60
2022-08-04T06:33:03.531Z,28.60
2022-08-04T06:35:33.541Z,28.60
2022-08-04T06:38:04.052Z,28.60
2022-08-04T06:40:34.024Z,28.60
2022-08-04T06:43:03.729Z,28.60
2022-08-04T06:45:34.192Z,28.60
2022-08-04T06:48:03.413Z,28.60
2022-08-04T06:51:25.590Z,28.60
2022-08-04T06:53:21.126Z,28.60
2022-08-04T06:55:50.243Z,28.70
2022-08-04T06:58:19.918Z,28.70
2022-08-04T07:00:48.805Z,28.70
2022-08-04T07:03:21.509Z,28.70
2022-08-04T07:05:50.328Z,28.80
2022-08-04T07:08:18.408Z,28.80
2022-08-04T07:10:47.814Z,28.80
2022-08-04T07:13:16.647Z,28.80
2022-08-04T07:15:46.512Z,28.80
2022-08-04T07:18:14.504Z,28.90
2022-08-04T07:20:43.808Z,28.90
2022-08-04T07:23:13.665Z,28.80
2022-08-04T07:25:58.859Z,28.90
2022-08-04T07:28:31.509Z,28.90
2022-08-04T07:30:59.813Z,28.90
2022-08-04T07:33:29.708Z,28.90
2022-08-04T07:36:10.759Z,28.90
2022-08-04T07:38:51.025Z,28.90
2022-08-04T07:41:39.025Z,28.90
2022-08-04T07:44:09.181Z,28.90
2022-08-04T07:46:37.542Z,29.00
2022-08-04T07:49:06.282Z,29.00
2022-08-04T07:51:35.465Z,29.00
2022-08-04T07:54:05.097Z,29.00
2022-08-04T07:56:34.083Z,29.00
2022-08-04T07:59:02.563Z,29.00
2022-08-04T08:01:31.999Z,29.00
2022-08-04T08:04:01.211Z,29.00
2022-08-04T08:06:34.736Z,29.00
2022-08-04T08:09:12.498Z,29.00
2022-08-04T08:12:37.644Z,29.00
2022-08-04T08:14:32.042Z,29.10
2022-08-04T08:17:02.564Z,29.10
2022-08-04T08:19:30.844Z,29.10
2022-08-04T08:22:00.819Z,29.10
2022-08-04T08:24:30.595Z,29.10
2022-08-04T08:26:59.945Z,29.10
2022-08-04T08:29:29.865Z,29.10
2022-08-04T08:32:01.620Z,29.10
2022-08-04T08:34:34.725Z,29.10
2022-08-04T08:37:07.518Z,29.10
2022-08-04T08:39:40.723Z,29.10
2022-08-04T08:42:34.717Z,29.10
2022-08-04T08:45:40.463Z,29.10
2022-08-04T08:48:44.681Z,29.10
2022-08-04T08:51:47.953Z,29.10
2022-08-04T08:54:45.200Z,29.10
2022-08-04T08:57:30.784Z,29.20
2022-08-04T09:00:08.494Z,29.20
2022-08-04T09:03:08.777Z,29.20
2022-08-04T09:05:49.190Z,29.20
2022-08-04T09:08:31.442Z,29.20
2022-08-04T09:11:07.540Z,29.20
2022-08-04T09:13:45.594Z,29.20
2022-08-04T09:16:18.845Z,29.20
2022-08-04T09:18:54.044Z,29.20
2022-08-04T09:21:30.759Z,29.30
2022-08-04T09:24:36.643Z,29.30
2022-08-04T09:27:00.998Z,29.30
2022-08-04T09:29:37.241Z,29.30
2022-08-04T09:32:11.410Z,29.30
2022-08-04T09:35:03.636Z,29.40
2022-08-04T09:37:45.895Z,29.40
2022-08-04T09:40:31.256Z,29.40
2022-08-04T09:43:15.877Z,29.40
2022-08-04T09:45:54.321Z,29.50
2022-08-04T09:48:35.242Z,29.40
2022-08-04T09:51:11.838Z,29.50
2022-08-04T09:53:54.515Z,29.50
2022-08-04T09:56:29.211Z,29.50
2022-08-04T09:59:09.092Z,29.50
2022-08-04T10:01:39.111Z,29.60
2022-08-04T10:04:11.459Z,29.60
2022-08-04T10:07:02.215Z,29.60
2022-08-04T10:09:42.720Z,29.60
2022-08-04T10:12:29.067Z,29.70
2022-08-04T10:15:10.523Z,29.70
2022-08-04T10:17:57.633Z,29.70
2022-08-04T10:20:46.979Z,29.70
2022-08-04T10:23:24.661Z,29.70
2022-08-04T10:26:07.371Z,29.70
2022-08-04T10:28:42.496Z,29.70
2022-08-04T10:31:20.141Z,29.70
2022-08-04T10:33:53.694Z,29.60
2022-08-04T10:36:25.437Z,29.70
2022-08-04T10:39:00.664Z,29.60
2022-08-04T10:41:35.729Z,29.60
2022-08-04T10:44:23.321Z,29.60
2022-08-04T10:46:56.467Z,29.60
2022-08-04T10:49:29.205Z,29.60
2022-08-04T10:52:04.804Z,29.60
2022-08-04T10:54:43.715Z,29.60
2022-08-04T10:57:16.688Z,29.60
2022-08-04T10:59:50.620Z,29.60
2022-08-04T11:02:32.825Z,29.60
2022-08-04T11:05:11.819Z,29.60
2022-08-04T11:07:44.821Z,29.60
2022-08-04T11:10:14.288Z,29.60
2022-08-04T11:12:43.987Z,29.60
2022-08-04T11:15:19.805Z,29.60
2022-08-04T11:17:54.866Z,29.60
2022-08-04T11:20:37.418Z,29.60
2022-08-04T11:23:09.884Z,29.60
2022-08-04T11:25:52.001Z,29.60
2022-08-04T11:28:26.565Z,29.60
2022-08-04T11:31:00.258Z,29.60
2022-08-04T11:33:38.466Z,29.60
2022-08-04T11:36:15.444Z,29.60
2022-08-04T11:38:50.922Z,29.60
2022-08-04T11:41:23.418Z,29.60
2022-08-04T11:44:01.739Z,29.60
2022-08-04T11:46:38.037Z,29.60
2022-08-04T11:49:11.781Z,29.60
2022-08-04T11:51:40.233Z,29.60
2022-08-04T11:54:08.229Z,29.60
2022-08-04T11:56:38.128Z,29.60
2022-08-04T11:59:09.010Z,29.60
2022-08-04T12:01:47.362Z,29.60
2022-08-04T12:04:26.641Z,29.60
2022-08-04T12:07:21.651Z,29.60
2022-08-04T12:09:55.972Z,29.60
2022-08-04T12:12:29.635Z,29.60
2022-08-04T12:15:04.747Z,29.60
2022-08-04T12:17:52.158Z,29.60
2022-08-04T12:20:31.734Z,29.70
2022-08-04T12:23:15.775Z,29.60
2022-08-04T12:25:49.699Z,29.60
2022-08-04T12:28:24.073Z,29.60
2022-08-04T12:31:01.534Z,29.60
2022-08-04T12:34:02.763Z,29.60
2022-08-04T12:36:34.546Z,29.60
2022-08-04T12:39:07.431Z,29.60
2022-08-04T12:41:46.417Z,29.70
2022-08-04T12:44:33.212Z,29.70
2022-08-04T12:47:27.662Z,29.70
2022-08-04T12:50:00.461Z,29.70
2022-08-04T12:53:00.318Z,29.70
2022-08-04T12:55:24.513Z,29.70
2022-08-04T12:57:53.529Z,29.70
2022-08-04T13:00:30.466Z,29.70
2022-08-04T13:03:10.676Z,29.70
2022-08-04T13:05:41.559Z,29.70
2022-08-04T13:08:12.237Z,29.70
2022-08-04T13:10:42.969Z,29.70
2022-08-04T13:13:17.574Z,29.70
2022-08-04T13:15:56.874Z,29.70
2022-08-04T13:18:29.915Z,29.70
2022-08-04T13:21:19.458Z,29.70
2022-08-04T13:24:19.703Z,29.70
2022-08-04T13:26:57.819Z,29.70
2022-08-04T13:30:00.506Z,29.70
2022-08-04T13:32:25.270Z,29.70
2022-08-04T13:34:55.958Z,29.70
2022-08-04T13:37:31.360Z,29.70
2022-08-04T13:40:02.797Z,29.70
2022-08-04T13:42:31.314Z,29.70
2022-08-04T13:45:00.920Z,29.70
2022-08-04T13:47:33.293Z,29.70
2022-08-04T13:50:17.997Z,29.70
2022-08-04T13:52:47.800Z,29.70
2022-08-04T13:55:26.159Z,29.70
2022-08-04T13:57:59.904Z,29.70
2022-08-04T14:00:38.318Z,29.70
2022-08-04T14:03:19.115Z,29.70
2022-08-04T14:06:15.295Z,29.70
2022-08-04T14:08:55.438Z,29.70
2022-08-04T14:12:10.072Z,29.70
2022-08-04T14:14:25.347Z,29.70
2022-08-04T14:17:01.286Z,29.70
2022-08-04T14:22:09.760Z,29.70
2022-08-04T14:24:42.941Z,29.70
2022-08-04T14:27:12.114Z,29.70
2022-08-04T14:29:41.734Z,29.70
2022-08-04T14:32:12.679Z,29.70
2022-08-04T14:34:44.817Z,29.70
2022-08-04T14:37:18.242Z,29.70
2022-08-04T14:40:17.680Z,29.70
2022-08-04T14:42:55.211Z,29.70
2022-08-04T14:45:31.906Z,29.70
2022-08-04T14:48:00.661Z,29.70
2022-08-04T14:50:37.056Z,29.70
2022-08-04T14:53:06.589Z,29.70
2022-08-04T14:55:34.452Z,29.70
2022-08-04T14:58:36.948Z,29.70
2022-08-04T15:00:56.283Z,29.70
2022-08-04T15:03:24.457Z,29.70
2022-08-04T15:06:02.650Z,29.70
2022-08-04T15:08:33.866Z,29.70
2022-08-04T15:11:03.137Z,29.70
2022-08-04T15:13:33.593Z,29.70
2022-08-04T15:16:07.497Z,29.70
2022-08-04T15:18:37.653Z,29.70
2022-08-04T15:21:08.687Z,29.70
2022-08-04T15:23:39.193Z,29.70
2022-08-04T15:26:10.844Z,29.80
2022-08-04T15:28:43.283Z,29.80
2022-08-04T15:32:07.812Z,29.80
2022-08-04T15:33:59.830Z,29.80
2022-08-04T15:36:34.484Z,29.80
2022-08-04T15:39:09.721Z,29.80
2022-08-04T15:41:54.982Z,29.80
2022-08-04T15:44:59.854Z,29.80
2022-08-04T15:47:27.984Z,29.80
2022-08-04T15:50:08.532Z,29.80
2022-08-04T15:53:10.358Z,29.80
2022-08-04T15:55:43.095Z,29.80
2022-08-04T15:58:13.050Z,29.80
2022-08-04T16:01:17.176Z,29.80
2022-08-04T16:03:57.817Z,29.80
2022-08-04T16:06:46.976Z,29.80
2022-08-04T16:09:45.227Z,29.80
2022-08-04T16:12:54.720Z,29.80
2022-08-04T16:15:39.744Z,29.80
2022-08-04T16:18:25.690Z,29.80
2022-08-04T16:20:57.450Z,29.80
2022-08-04T16:24:02.157Z,29.80
2022-08-04T16:26:54.709Z,29.80
2022-08-04T16:29:41.076Z,29.90
2022-08-04T16:32:11.701Z,29.90
2022-08-04T16:34:49.931Z,29.90
2022-08-04T16:37:22.516Z,29.90
2022-08-04T16:39:51.947Z,29.90
2022-08-04T16:42:36.329Z,29.90
2022-08-04T16:45:12.742Z,29.90
2022-08-04T16:48:03.209Z,29.90
2022-08-04T16:50:33.188Z,30.00
2022-08-04T16:53:01.398Z,30.00
2022-08-04T16:55:29.898Z,30.00
2022-08-04T16:57:59.709Z,30.00
2022-08-04T17:00:32.400Z,30.00
2022-08-04T17:03:03.334Z,30.00
2022-08-04T17:05:39.045Z,30.00
2022-08-04T17:10:57.423Z,30.00
2022-08-04T17:14:03.974Z,30.00
2022-08-04T17:16:22.474Z,30.00
2022-08-04T17:18:52.039Z,30.10
2022-08-04T17:21:24.259Z,30.10
2022-08-04T17:24:16.490Z,30.10
2022-08-04T17:26:42.080Z,30.10
2022-08-04T17:29:20.301Z,30.10
2022-08-04T17:31:48.204Z,30.10
2022-08-04T17:34:21.031Z,30.10
2022-08-04T17:36:50.620Z,30.10
2022-08-04T17:39:21.710Z,30.10
2022-08-04T17:41:49.768Z,30.10
2022-08-04T17:44:17.993Z,30.10
2022-08-04T17:46:48.763Z,30.10
2022-08-04T17:49:23.052Z,30.10
2022-08-04T17:52:05.515Z,30.20
2022-08-04T17:54:40.681Z,30.10
2022-08-04T17:57:19.693Z,30.10
2022-08-04T18:02:40.855Z,30.10
2022-08-04T18:05:11.743Z,30.10
2022-08-04T18:08:39.099Z,30.10
2022-08-04T18:10:52.527Z,30.10
2022-08-04T18:13:25.333Z,30.10
2022-08-04T18:16:02.679Z,30.10
2022-08-04T18:18:30.778Z,30.10
2022-08-04T18:21:02.734Z,30.10
2022-08-04T18:23:33.219Z,30.10
2022-08-04T18:26:02.251Z,30.10
2022-08-04T18:28:33.712Z,30.10
2022-08-04T18:31:02.386Z,30.10
2022-08-04T18:33:39.703Z,30.10
2022-08-04T18:36:36.288Z,30.10
2022-08-04T18:39:13.082Z,30.10
2022-08-04T18:42:01.601Z,30.10
2022-08-04T18:44:31.549Z,30.10
2022-08-04T18:47:22.633Z,30.10
2022-08-04T18:51:01.239Z,30.10
2022-08-04T18:52:45.292Z,30.10
2022-08-04T18:55:55.262Z,30.10
2022-08-04T18:58:07.042Z,30.10
2022-08-04T19:00:35.620Z,30.10
2022-08-04T19:03:04.066Z,30.10
2022-08-04T19:05:37.800Z,30.10
2022-08-04T19:08:32.960Z,30.10
2022-08-04T19:10:59.720Z,30.10
2022-08-04T19:13:29.543Z,30.10
2022-08-04T19:16:02.679Z,30.10
2022-08-04T19:18:32.246Z,30.10
2022-08-04T19:21:05.232Z,30.10
2022-08-04T19:24:10.978Z,30.10
2022-08-04T19:26:28.252Z,30.10
2022-08-04T19:28:56.411Z,30.10
2022-08-04T19:34:12.702Z,30.10
2022-08-04T19:36:40.655Z,30.10
2022-08-04T19:39:14.107Z,30.10
2022-08-04T19:42:05.819Z,30.10
2022-08-04T19:44:33.116Z,30.10
2022-08-04T19:47:02.420Z,30.10
2022-08-04T19:50:04.023Z,30.10
2022-08-04T19:52:36.778Z,30.10
2022-08-04T19:55:10.679Z,30.10
2022-08-04T19:57:46.230Z,30.10
2022-08-04T20:00:17.410Z,30.10
2022-08-04T20:03:01.446Z,30.10
2022-08-04T20:05:52.638Z,30.00
2022-08-04T20:08:18.489Z,30.00
2022-08-04T20:10:51.569Z,30.00
2022-08-04T20:13:21.746Z,30.00
2022-08-04T20:15:57.344Z,30.00
2022-08-04T20:18:34.726Z,30.00
2022-08-04T20:21:18.888Z,30.00
2022-08-04T20:23:50.481Z,30.00
2022-08-04T20:26:18.239Z,30.00
2022-08-04T20:28:52.057Z,30.00
2022-08-04T20:31:22.012Z,30.00
2022-08-04T20:33:53.883Z,30.00
2022-08-04T20:36:23.185Z,30.00
2022-08-04T20:38:52.708Z,30.00
2022-08-04T20:41:20.986Z,30.00
2022-08-04T20:46:37.880Z,30.00
2022-08-04T20:49:06.405Z,30.00
2022-08-04T20:51:39.868Z,30.00
2022-08-04T20:54:16.925Z,30.00
2022-08-04T20:56:51.440Z,30.00
2022-08-04T20:59:20.946Z,30.00
2022-08-04T21:01:53.567Z,30.00
2022-08-04T21:04:35.488Z,30.00
2022-08-04T21:07:05.788Z,30.00
2022-08-04T21:12:27.378Z,30.00
2022-08-04T21:15:01.216Z,30.00
2022-08-04T21:20:29.339Z,30.00
2022-08-04T21:22:59.384Z,30.00
2022-08-04T21:25:29.897Z,30.00
2022-08-04T21:27:58.847Z,30.00
2022-08-04T21:30:28.328Z,30.00
2022-08-04T21:32:56.443Z,30.00
2022-08-04T21:35:26.703Z,29.90
2022-08-04T21:38:16.649Z,29.90
2022-08-04T21:40:53.621Z,29.90
2022-08-04T21:43:23.771Z,29.90
2022-08-04T21:45:56.800Z,29.90
2022-08-04T21:48:31.780Z,29.90
2022-08-04T21:51:13.751Z,29.90
2022-08-04T21:54:01.857Z,29.90
2022-08-04T21:56:29.787Z,29.90
2022-08-04T21:58:58.791Z,29.90
2022-08-04T22:01:51.946Z,29.90
2022-08-04T22:04:15.647Z,29.90
2022-08-04T22:06:47.765Z,29.90
2022-08-04T22:09:21.961Z,29.90
2022-08-04T22:11:51.803Z,29.90
2022-08-04T22:14:29.493Z,29.90
2022-08-04T22:17:04.370Z,29.90
2022-08-04T22:19:40.588Z,29.90
2022-08-04T22:22:25.425Z,29.90
2022-08-04T22:24:55.032Z,29.80
2022-08-04T22:27:36.757Z,29.90
2022-08-04T22:30:13.404Z,29.80
2022-08-04T22:32:47.566Z,29.80
2022-08-04T22:35:33.331Z,29.80
2022-08-04T22:38:23.452Z,29.80
2022-08-04T22:40:57.878Z,29.80
2022-08-04T22:43:33.276Z,29.80
2022-08-04T22:46:03.555Z,29.80
2022-08-04T22:48:33.847Z,29.80
2022-08-04T22:51:02.643Z,29.80
2022-08-04T22:53:30.897Z,29.80
2022-08-04T22:56:09.717Z,29.80
2022-08-04T22:58:40.139Z,29.80
2022-08-04T23:01:09.035Z,29.80
2022-08-04T23:03:38.835Z,29.80
2022-08-04T23:06:10.887Z,29.80
2022-08-04T23:08:42.823Z,29.80
2022-08-04T23:11:11.623Z,29.80
2022-08-04T23:13:40.037Z,29.80
2022-08-04T23:16:10.296Z,29.80
2022-08-04T23:18:42.349Z,29.80
2022-08-04T23:21:13.973Z,29.80
2022-08-04T23:23:47.672Z,29.80
2022-08-04T23:26:28.978Z,29.70
2022-08-04T23:28:56.891Z,29.70
2022-08-04T23:31:24.923Z,29.70
2022-08-04T23:34:12.228Z,29.70
2022-08-04T23:36:41.155Z,29.70
2022-08-04T23:39:10.668Z,29.70
2022-08-04T23:41:51.117Z,29.70
2022-08-04T23:44:25.417Z,29.70
2022-08-04T23:46:59.073Z,29.70
2022-08-04T23:49:44.288Z,29.70
2022-08-04T23:52:19.275Z,29.70
2022-08-04T23:54:58.173Z,29.70
2022-08-04T23:58:02.263Z,29.70
